METAR Data
IDs: Format: Raw Decoded Include TAF

Data at: 1049 UTC 18 Jan 2022

K7L2 181035Z AUTO 26007KT 10SM CLR 02/M01 A2947 RMK AO2
K7L2 181015Z AUTO 23008KT 10SM CLR 01/M01 A2947 RMK AO2
K7L2 180955Z AUTO 24010KT 10SM FEW085 SCT120 02/M01 A2947 RMK AO2
K7L2 180935Z AUTO 23008KT 10SM SCT120 M00/M02 A2947 RMK AO2
K7L2 180915Z AUTO 27005KT 10SM CLR 01/M01 A2949 RMK AO2
K7L2 180855Z AUTO 00000KT 10SM CLR 01/M01 A2949 RMK AO2
K7L2 180835Z AUTO 21006KT 10SM FEW095 02/M01 A2949 RMK AO2
K7L2 180815Z AUTO 21009KT 10SM BKN095 02/M00 A2949 RMK AO2
K7L2 180755Z AUTO 21008KT 10SM SCT095 02/M00 A2950 RMK AO2
K7L2 180735Z AUTO 20008KT 10SM CLR 02/M00 A2951 RMK AO2
K7L2 180715Z AUTO 19007KT 10SM CLR M00/M01 A2952 RMK AO2
K7L2 180655Z AUTO 10007KT 10SM CLR M02/M03 A2952 RMK AO2
K7L2 180635Z AUTO 18006KT 10SM CLR M00/M01 A2954 RMK AO2
K7L2 180615Z AUTO 08004KT 10SM CLR M01/M02 A2954 RMK AO2
K7L2 180555Z AUTO 00000KT 10SM CLR M01/M02 A2955 RMK AO2
K7L2 180535Z AUTO 14010KT 10SM CLR M01/M02 A2956 RMK AO2
K7L2 180515Z AUTO 15011KT 10SM CLR M00/M01 A2957 RMK AO2
K7L2 180455Z AUTO 16012KT 10SM CLR M01/M02 A2957 RMK AO2
K7L2 180435Z AUTO 14010KT 10SM CLR M02/M02 A2959 RMK AO2
K7L2 180415Z AUTO 15011KT 10SM CLR M01/M02 A2960 RMK AO2
K7L2 180355Z AUTO 15011KT 10SM CLR M01/M01 A2961 RMK AO2
K7L2 180335Z AUTO 13009KT 10SM CLR M01/M02 A2963 RMK AO2
K7L2 180315Z AUTO 13010KT 10SM CLR M01/M02 A2963 RMK AO2
K7L2 180255Z AUTO 13010KT 10SM CLR M02/M02 A2964 RMK AO2
K7L2 180235Z AUTO 11007KT 10SM CLR M03/M03 A2966 RMK AO2
K7L2 180215Z AUTO 12005KT 10SM CLR M02/M03 A2966 RMK AO2
K7L2 180155Z AUTO 13006KT 10SM CLR M02/M02 A2967 RMK AO2
K7L2 180135Z AUTO 13006KT 10SM CLR M02/M02 A2967 RMK AO2
K7L2 180115Z AUTO 11006KT 10SM CLR M03/M03 A2968 RMK AO2
K7L2 180055Z AUTO 13006KT 10SM CLR M02/M02 A2968 RMK AO2
K7L2 180035Z AUTO 12004KT 10SM CLR M02/M02 A2968 RMK AO2
K7L2 180015Z AUTO 09005KT 10SM CLR M02/M02 A2968 RMK AO2
K7L2 172355Z AUTO 14005KT 10SM CLR M00/M01 A2969 RMK AO2
K7L2 172335Z AUTO 13005KT 10SM CLR 00/M01 A2968 RMK AO2
K7L2 172315Z AUTO 11004KT 10SM CLR 01/M01 A2969 RMK AO2
K7L2 172255Z AUTO 13003KT 10SM CLR 02/M01 A2969 RMK AO2
K7L2 172235Z AUTO 00000KT 10SM CLR 02/M00 A2969 RMK AO2
K7L2 172215Z AUTO 00000KT 10SM CLR 03/M00 A2969 RMK AO2
K7L2 172155Z AUTO 00000KT 10SM CLR 03/M00 A2970 RMK AO2
K7L2 172135Z AUTO 00000KT 10SM CLR 03/M00 A2971 RMK AO2
K7L2 172115Z AUTO 00000KT 10SM CLR 04/M00 A2970 RMK AO2
K7L2 172055Z AUTO 3/91666704KT 10SM CLR 03/M00 A2970 RMK AO2
K7L2 172035Z AUTO 00000KT 10SM CLR 04/M01 A2970 RMK AO2
K7L2 172015Z AUTO 31004KT 10SM CLR 03/M01 A2971 RMK AO2
K7L2 171955Z AUTO 00000KT 10SM CLR 04/M00 A2971 RMK AO2
K7L2 171935Z AUTO 00000KT 10SM CLR 04/M00 A2971 RMK AO2
K7L2 171915Z AUTO 23005KT 10SM CLR 03/M01 A2972 RMK AO2
K7L2 171855Z AUTO 22007KT 10SM CLR 02/M01 A2973 RMK AO2
K7L2 171835Z AUTO 21006KT 10SM CLR 02/M01 A2974 RMK AO2
K7L2 171815Z AUTO 21004KT 10SM CLR 02/M01 A2974 RMK AO2
K7L2 171755Z AUTO 19005KT 10SM CLR 01/M01 A2975 RMK AO2
K7L2 171735Z AUTO 16004KT 10SM SCT075 00/M01 A2975 RMK AO2
K7L2 171715Z AUTO 15008KT 10SM SCT075 M00/M01 A2975 RMK AO2
K7L2 171655Z AUTO 14009KT 10SM CLR M01/M02 A2975 RMK AO2
K7L2 171635Z AUTO 11006KT 10SM SCT080 M02/M02 A2976 RMK AO2
K7L2 171615Z AUTO 14009KT 10SM BKN075 OVC085 M02/M02 A2976 RMK AO2
K7L2 171555Z AUTO 15010KT 10SM BKN080 OVC085 M02/M03 A2976 RMK AO2
K7L2 171535Z AUTO 14009KT 10SM BKN075 OVC085 M02/M03 A2977 RMK AO2
K7L2 171515Z AUTO 13005G11KT 10SM OVC075 M03/M03 A2978 RMK AO2
K7L2 171455Z AUTO 15010KT 10SM OVC075 M03/M03 A2977 RMK AO2
K7L2 171435Z AUTO 12005KT 10SM OVC070 M03/M03 A2977 RMK AO2
K7L2 171415Z AUTO VRB04G10KT 10SM OVC065 M03/M03 A2978 RMK AO2
K7L2 171355Z AUTO 12008KT 10SM FEW045 FEW055 OVC065 M03/M03 A2977 RMK AO2
K7L2 171335Z AUTO 13008KT 10SM FEW044 BKN060 OVC070 M04/M04 A2978 RMK AO2
K7L2 171315Z AUTO 13008KT 10SM OVC065 M04/M04 A2979 RMK AO2
K7L2 171255Z AUTO 13009KT 10SM OVC070 M04/M04 A2979 RMK AO2
K7L2 171235Z AUTO 12007KT 10SM OVC070 M04/M04 A2980 RMK AO2
K7L2 171215Z AUTO 11004KT 10SM SCT055 OVC075 M04/M04 A2980 RMK AO2
K7L2 171155Z AUTO 11005KT 10SM SCT055 OVC070 M04/M04 A2980 RMK AO2
K7L2 171135Z AUTO 11005KT 10SM FEW060 OVC070 M04/M04 A2981 RMK AO2
K7L2 171115Z AUTO 12006KT 10SM SCT065 OVC075 M05/M05 A2982 RMK AO2
K7L2 171055Z AUTO 11004KT 10SM BKN075 OVC090 M05/M05 A2982 RMK AO2
K7L2 171035Z AUTO 12004KT 10SM OVC075 M05/M05 A2983 RMK AO2
K7L2 171015Z AUTO 14004KT 10SM BKN075 OVC095 M05/M05 A2984 RMK AO2
K7L2 170955Z AUTO 12004KT 10SM SCT075 BKN090 OVC110 M07/M07 A2985 RMK AO2
K7L2 170935Z AUTO 12003KT 10SM BKN075 OVC085 M07/M07 A2986 RMK AO2
K7L2 170915Z AUTO 13004KT 10SM SCT075 OVC095 M07/M07 A2986 RMK AO2
K7L2 170855Z AUTO 12004KT 10SM OVC090 M08/M08 A2987 RMK AO2
K7L2 170835Z AUTO 10004KT 10SM BKN080 OVC110 M08/M08 A2988 RMK AO2
K7L2 170815Z AUTO 09005KT 10SM SCT090 OVC120 M09/M09 A2988 RMK AO2
K7L2 170755Z AUTO 00000KT 10SM SCT120 M09/M09 A2989 RMK AO2
K7L2 170735Z AUTO 00000KT 10SM FEW120 M10/M10 A2990 RMK AO2
K7L2 170715Z AUTO 00000KT 10SM FEW120 M10/M10 A2991 RMK AO2
K7L2 170655Z AUTO 00000KT 10SM CLR M10/M10 A2992 RMK AO2
K7L2 170635Z AUTO 00000KT 10SM CLR M11/M11 A2992 RMK AO2
K7L2 170615Z AUTO 00000KT 10SM CLR M10/M10 A2992 RMK AO2
K7L2 170555Z AUTO 00000KT 10SM CLR M09/M10 A2992 RMK AO2
K7L2 170535Z AUTO 00000KT 10SM CLR M09/M09 A2993 RMK AO2
K7L2 170515Z AUTO 00000KT 10SM CLR M09/M09 A2993 RMK AO2
K7L2 170455Z AUTO 18003KT 10SM CLR M05/M05 A2993 RMK AO2
K7L2 170435Z AUTO 00000KT 10SM CLR M06/M06 A2994 RMK AO2
K7L2 170415Z AUTO 13003KT 10SM CLR M07/M07 A2995 RMK AO2
K7L2 170355Z AUTO 00000KT 10SM CLR M04/M04 A2995 RMK AO2
K7L2 170335Z AUTO 00000KT 10SM CLR M06/M06 A2996 RMK AO2
K7L2 170315Z AUTO 00000KT 10SM CLR M05/M05 A2997 RMK AO2
K7L2 170255Z AUTO 23003KT 10SM CLR M05/M05 A2998 RMK AO2
K7L2 170235Z AUTO 22005KT 10SM CLR M05/M05 A2998 RMK AO2
K7L2 170215Z AUTO 23008KT 10SM CLR M05/M05 A2998 RMK AO2
K7L2 170155Z AUTO 24006KT 10SM CLR M05/M05 A2998 RMK AO2
K7L2 170135Z AUTO 24008KT 10SM CLR M04/M04 A2998 RMK AO2
K7L2 170115Z AUTO 23008KT 10SM CLR M03/M03 A2998 RMK AO2
K7L2 170055Z AUTO 26004KT 10SM CLR M03/M03 A2998 RMK AO2
K7L2 170035Z AUTO 30005KT 10SM CLR M01/M01 A2999 RMK AO2
K7L2 170015Z AUTO 31003KT 10SM SCT039 M00/M01 A2998 RMK AO2
K7L2 162355Z AUTO 34005KT 10SM SCT020 OVC039 00/M01 A2999 RMK AO2
K7L2 162335Z AUTO 33007KT 10SM OVC018 01/M00 A3000 RMK AO2
K7L2 162315Z AUTO 34011G16KT 10SM BKN015 BKN043 01/M00 A3000 RMK AO2
K7L2 162255Z AUTO 33009KT 10SM FEW017 SCT046 01/M00 A2999 RMK AO2